Time;durP1;ratioP1;P1;durP2;ratioP2;P2;SDS_P1;SDS_P2;PMS_P1;PMS_P2;Temp;Humidity;BMP_temperature;BMP_pressure;BME280_temperature;BME280_humidity;BME280_pressure;Samples;Min_cycle;Max_cycle;Signal;HPM_P1;HPM_P2
2022/04/29 00:03:56;;;;;;;36.30;19.10;;;;;;;;;;10113414;29;20065;-66
2022/04/29 00:08:59;;;;;;;34.28;18.65;;;;;;;;;;10098700;29;20049;-66
2022/04/29 00:14:01;;;;;;;36.75;19.58;;;;;;;;;;10075159;29;20057;-66
2022/04/29 00:19:05;;;;;;;46.22;20.02;;;;;;;;;;10107361;29;20052;-67
2022/04/29 00:24:07;;;;;;;44.80;18.95;;;;;;;;;;10075574;29;20056;-66
2022/04/29 00:29:10;;;;;;;38.65;19.15;;;;;;;;;;10083801;29;20065;-66
2022/04/29 00:34:14;;;;;;;38.13;19.25;;;;;;;;;;10076253;29;20065;-66
2022/04/29 00:39:16;;;;;;;39.85;21.00;;;;;;;;;;10104464;29;20050;-66
2022/04/29 00:44:19;;;;;;;39.35;18.05;;;;;;;;;;10074491;29;20093;-66
2022/04/29 00:49:23;;;;;;;36.00;17.58;;;;;;;;;;10074921;29;20321;-66
2022/04/29 00:54:31;;;;;;;29.33;16.80;;;;;;;;;;10079844;29;20068;-67
2022/04/29 00:59:39;;;;;;;36.75;16.63;;;;;;;;;;10084939;29;20054;-67
2022/04/29 01:04:49;;;;;;;31.33;16.85;;;;;;;;;;10062799;29;20065;-67
2022/04/29 01:09:51;;;;;;;36.20;17.20;;;;;;;;;;10085034;29;20344;-67
2022/04/29 01:14:54;;;;;;;26.80;16.58;;;;;;;;;;10073375;29;20107;-67
2022/04/29 01:20:01;;;;;;;35.72;17.67;;;;;;;;;;10074438;29;20060;-67
2022/04/29 01:25:06;;;;;;;37.08;17.48;;;;;;;;;;10083702;29;20068;-66
2022/04/29 01:30:11;;;;;;;32.63;16.77;;;;;;;;;;10113053;29;20049;-67
2022/04/29 01:35:14;;;;;;;37.33;18.60;;;;;;;;;;10085922;29;20061;-67
2022/04/29 01:40:18;;;;;;;38.15;19.85;;;;;;;;;;10087761;29;20053;-66
2022/04/29 01:45:20;;;;;;;31.35;17.77;;;;;;;;;;10073572;29;20057;-67
2022/04/29 01:50:22;;;;;;;35.50;18.15;;;;;;;;;;10076607;29;20041;-66
2022/04/29 01:55:26;;;;;;;32.03;18.65;;;;;;;;;;10035985;29;20057;-68
2022/04/29 02:00:30;;;;;;;35.90;18.77;;;;;;;;;;10070818;29;20061;-66
2022/04/29 02:05:32;;;;;;;29.15;18.17;;;;;;;;;;10116794;29;20053;-67
2022/04/29 02:10:36;;;;;;;32.42;18.35;;;;;;;;;;10081027;29;20049;-67
2022/04/29 02:15:38;;;;;;;37.25;19.50;;;;;;;;;;10089745;29;20057;-67
2022/04/29 02:20:40;;;;;;;40.97;21.17;;;;;;;;;;10096216;29;20101;-66
2022/04/29 02:25:45;;;;;;;38.65;20.00;;;;;;;;;;10079320;29;20045;-67
2022/04/29 02:30:47;;;;;;;35.63;18.67;;;;;;;;;;10080172;29;20053;-67
2022/04/29 02:35:49;;;;;;;36.45;20.48;;;;;;;;;;10099489;29;20070;-65
2022/04/29 02:40:54;;;;;;;38.47;19.15;;;;;;;;;;10080396;29;20243;-67
2022/04/29 02:45:56;;;;;;;40.53;19.80;;;;;;;;;;10079371;29;20057;-67
2022/04/29 02:50:58;;;;;;;39.38;19.48;;;;;;;;;;10078292;29;20057;-67
2022/04/29 02:56:03;;;;;;;31.52;19.08;;;;;;;;;;10078287;29;20102;-66
2022/04/29 03:01:06;;;;;;;36.35;19.15;;;;;;;;;;10094196;29;20352;-66
2022/04/29 03:06:08;;;;;;;32.08;18.33;;;;;;;;;;10079100;29;20049;-66
2022/04/29 03:11:12;;;;;;;37.70;18.10;;;;;;;;;;10077405;29;20070;-67
2022/04/29 03:16:14;;;;;;;40.13;18.23;;;;;;;;;;10088008;29;20053;-67
2022/04/29 03:21:18;;;;;;;37.08;18.13;;;;;;;;;;10077978;29;20053;-67
2022/04/29 03:26:22;;;;;;;37.03;18.45;;;;;;;;;;10077146;29;20093;-66
2022/04/29 03:31:24;;;;;;;30.75;17.42;;;;;;;;;;10081062;29;20060;-66
2022/04/29 03:36:27;;;;;;;29.10;16.98;;;;;;;;;;10100633;29;20106;-67
2022/04/29 03:41:30;;;;;;;28.70;16.70;;;;;;;;;;10111159;29;20254;-67
2022/04/29 03:46:33;;;;;;;38.92;23.48;;;;;;;;;;10075126;29;20353;-68
2022/04/29 03:51:35;;;;;;;28.67;18.02;;;;;;;;;;10095675;29;20087;-67
2022/04/29 03:56:39;;;;;;;30.40;17.35;;;;;;;;;;10072540;29;20049;-67
2022/04/29 04:01:42;;;;;;;30.92;15.38;;;;;;;;;;10074469;29;20065;-67
2022/04/29 04:06:50;;;;;;;29.40;13.82;;;;;;;;;;10075245;29;20049;-67
2022/04/29 04:11:54;;;;;;;14.68;11.32;;;;;;;;;;10086848;29;20343;-68
2022/04/29 04:16:56;;;;;;;15.83;12.00;;;;;;;;;;10075575;29;20049;-67
2022/04/29 04:21:58;;;;;;;20.17;11.02;;;;;;;;;;10075549;29;20086;-67
2022/04/29 04:27:02;;;;;;;16.65;10.90;;;;;;;;;;10084486;29;20244;-67
2022/04/29 04:32:05;;;;;;;;;;;;;;;;;;10114493;29;20125;-66
2022/04/29 04:37:07;;;;;;;14.80;8.50;;;;;;;;;;10083198;29;19927;-66
2022/04/29 04:42:12;;;;;;;15.50;7.75;;;;;;;;;;10092720;29;20053;-68
2022/04/29 04:47:16;;;;;;;20.83;7.72;;;;;;;;;;10078270;29;20053;-67
2022/04/29 04:52:18;;;;;;;14.07;7.40;;;;;;;;;;10092202;29;20041;-67
2022/04/29 04:57:22;;;;;;;14.20;7.30;;;;;;;;;;10091883;29;20362;-68
2022/04/29 05:02:25;;;;;;;14.90;7.30;;;;;;;;;;10087607;29;20057;-67
2022/04/29 05:07:27;;;;;;;14.55;8.02;;;;;;;;;;10106266;29;20049;-67
2022/04/29 05:12:31;;;;;;;11.73;7.00;;;;;;;;;;10092738;29;20044;-68
2022/04/29 05:17:33;;;;;;;13.02;6.82;;;;;;;;;;10083483;29;20065;-70
2022/04/29 05:22:35;;;;;;;10.73;5.82;;;;;;;;;;10074484;29;20137;-68
2022/04/29 05:27:39;;;;;;;10.75;6.28;;;;;;;;;;10088951;29;20065;-67
2022/04/29 05:32:41;;;;;;;13.50;7.03;;;;;;;;;;10093306;29;20062;-67
2022/04/29 05:37:43;;;;;;;9.57;6.05;;;;;;;;;;10095534;29;20057;-68
2022/04/29 05:42:47;;;;;;;15.40;5.13;;;;;;;;;;10096298;29;20063;-69
2022/04/29 05:47:50;;;;;;;10.80;4.85;;;;;;;;;;10080073;29;20057;-69
2022/04/29 05:52:52;;;;;;;8.45;5.18;;;;;;;;;;10093834;29;20045;-67
2022/04/29 05:57:56;;;;;;;11.35;4.60;;;;;;;;;;10080982;29;20072;-68
2022/04/29 06:02:58;;;;;;;7.32;4.00;;;;;;;;;;10079835;29;20264;-69
2022/04/29 06:08:00;;;;;;;7.65;4.38;;;;;;;;;;10081467;29;20094;-68
2022/04/29 06:13:05;;;;;;;9.18;3.40;;;;;;;;;;10081311;29;20056;-68
2022/04/29 06:18:08;;;;;;;11.23;4.10;;;;;;;;;;10080224;29;20052;-68
2022/04/29 06:23:10;;;;;;;5.75;3.10;;;;;;;;;;10092874;29;20060;-67
2022/04/29 06:28:14;;;;;;;6.82;3.05;;;;;;;;;;10079297;29;20099;-69
2022/04/29 06:33:17;;;;;;;3.53;2.20;;;;;;;;;;10079730;29;20057;-69
2022/04/29 06:38:19;;;;;;;3.78;2.22;;;;;;;;;;10101098;29;20060;-68
2022/04/29 06:43:23;;;;;;;3.05;2.58;;;;;;;;;;10079473;29;20045;-68
2022/04/29 06:48:27;;;;;;;3.28;2.25;;;;;;;;;;10078250;29;20060;-68
2022/04/29 06:53:29;;;;;;;2.08;1.50;;;;;;;;;;10095673;29;20057;-68
2022/04/29 06:58:33;;;;;;;5.40;2.00;;;;;;;;;;10078730;29;20041;-68
2022/04/29 07:03:36;;;;;;;6.88;2.40;;;;;;;;;;10077448;29;20054;-68
2022/04/29 07:08:39;;;;;;;4.37;2.30;;;;;;;;;;10108468;29;20049;-68
2022/04/29 07:13:43;;;;;;;4.20;2.15;;;;;;;;;;10107181;29;20352;-69
2022/04/29 07:18:45;;;;;;;3.30;2.60;;;;;;;;;;10077876;29;20049;-68
2022/04/29 07:23:48;;;;;;;5.28;2.53;;;;;;;;;;10103306;29;20041;-69
2022/04/29 07:28:51;;;;;;;3.78;2.70;;;;;;;;;;10075993;29;20053;-68
2022/04/29 07:33:54;;;;;;;4.35;2.88;;;;;;;;;;10076369;29;20046;-67
2022/04/29 07:44:17;;;;;;;5.53;3.05;;;;;;;;;;10075696;29;20053;-69
2022/04/29 07:49:20;;;;;;;6.80;3.38;;;;;;;;;;10078077;29;20336;-68
2022/04/29 07:54:23;;;;;;;5.40;3.30;;;;;;;;;;10076325;29;20131;-70
2022/04/29 07:59:27;;;;;;;4.38;4.07;;;;;;;;;;10075418;29;20057;-69
2022/04/29 08:04:29;;;;;;;4.50;4.20;;;;;;;;;;10094531;29;20067;-69
2022/04/29 08:09:31;;;;;;;7.32;5.35;;;;;;;;;;10080974;29;20045;-68
2022/04/29 08:14:35;;;;;;;5.88;5.38;;;;;;;;;;10075277;29;20069;-68
2022/04/29 08:19:38;;;;;;;6.65;6.25;;;;;;;;;;10091545;29;20271;-69
2022/04/29 08:24:40;;;;;;;8.98;8.23;;;;;;;;;;10076052;29;20105;-69
2022/04/29 08:29:44;;;;;;;10.52;9.52;;;;;;;;;;10075215;29;20125;-68
2022/04/29 08:34:47;;;;;;;10.23;9.52;;;;;;;;;;10098836;29;20064;-70
2022/04/29 08:39:49;;;;;;;11.18;10.43;;;;;;;;;;10099967;29;20281;-69
2022/04/29 08:44:54;;;;;;;13.10;11.82;;;;;;;;;;10095468;29;20056;-68
2022/04/29 08:49:58;;;;;;;13.63;12.52;;;;;;;;;;10074856;29;20057;-69
2022/04/29 09:00:22;;;;;;;8.38;7.78;;;;;;;;;;10075236;29;20069;-68
2022/04/29 09:05:24;;;;;;;5.90;5.30;;;;;;;;;;10074630;29;20049;-70
2022/04/29 09:10:29;;;;;;;7.22;4.40;;;;;;;;;;10108791;29;20411;-69
2022/04/29 09:15:32;;;;;;;8.73;3.90;;;;;;;;;;10095459;29;20049;-68
2022/04/29 09:20:35;;;;;;;5.72;3.10;;;;;;;;;;10082589;29;20081;-69
2022/04/29 09:25:38;;;;;;;3.08;2.70;;;;;;;;;;10111124;29;20060;-68
2022/04/29 09:30:42;;;;;;;;;;;;;;;;;;10120932;29;20052;-68
2022/04/29 09:35:45;;;;;;;4.20;2.30;;;;;;;;;;10091581;29;19927;-67
2022/04/29 09:40:48;;;;;;;7.18;2.50;;;;;;;;;;10107407;29;20064;-67
2022/04/29 09:45:52;;;;;;;6.15;2.72;;;;;;;;;;10110784;29;20057;-67
2022/04/29 09:50:54;;;;;;;9.38;3.38;;;;;;;;;;10119716;29;20064;-67
2022/04/29 09:56:09;;;;;;;7.32;3.50;;;;;;;;;;10088734;29;20336;-68
2022/04/29 10:01:15;;;;;;;7.85;3.42;;;;;;;;;;10112220;29;20109;-68
2022/04/29 10:06:19;;;;;;;5.88;3.38;;;;;;;;;;10093391;29;20224;-67
2022/04/29 10:11:22;;;;;;;7.55;3.50;;;;;;;;;;10080492;29;20052;-67
2022/04/29 10:16:31;;;;;;;7.30;3.83;;;;;;;;;;10095484;29;20344;-69
2022/04/29 10:21:37;;;;;;;3.53;3.10;;;;;;;;;;10090993;29;20050;-70
2022/04/29 10:26:40;;;;;;;8.02;4.38;;;;;;;;;;10092491;29;20244;-71
2022/04/29 10:32:07;;;;;;;5.93;3.53;;;;;;;;;;10087201;29;20186;-71
2022/04/29 10:37:14;;;;;;;12.55;3.63;;;;;;;;;;10100381;29;20051;-70
2022/04/29 10:42:18;;;;;;;6.57;4.10;;;;;;;;;;10085095;29;20045;-69
2022/04/29 10:47:38;;;;;;;7.63;3.77;;;;;;;;;;10080874;29;20157;-67
2022/04/29 10:52:40;;;;;;;8.35;3.28;;;;;;;;;;10100672;29;20632;-69
2022/04/29 10:57:44;;;;;;;10.65;3.55;;;;;;;;;;10106512;29;20265;-68
2022/04/29 11:02:48;;;;;;;7.82;3.72;;;;;;;;;;10092754;29;20069;-67
2022/04/29 11:07:52;;;;;;;;;;;;;;;;;;10103554;29;20343;-70
2022/04/29 11:12:59;;;;;;;6.45;3.03;;;;;;;;;;10083342;29;19920;-69
2022/04/29 11:18:16;;;;;;;9.60;3.10;;;;;;;;;;10090446;29;20045;-68
2022/04/29 11:28:52;;;;;;;7.07;3.10;;;;;;;;;;10090529;29;20256;-66
2022/04/29 11:34:05;;;;;;;9.20;3.10;;;;;;;;;;10089445;29;20045;-67
2022/04/29 11:39:15;;;;;;;11.95;3.10;;;;;;;;;;10106876;29;20089;-68
2022/04/29 11:44:17;;;;;;;5.72;2.55;;;;;;;;;;10115057;29;20343;-68
2022/04/29 11:49:32;;;;;;;5.32;2.58;;;;;;;;;;10079246;29;20049;-68
2022/04/29 11:54:34;;;;;;;4.65;3.00;;;;;;;;;;10120578;29;20312;-68
2022/04/29 11:59:37;;;;;;;9.57;2.60;;;;;;;;;;10106740;29;20060;-69
2022/04/29 12:04:52;;;;;;;5.30;2.42;;;;;;;;;;10096585;29;20061;-69
2022/04/29 12:09:55;;;;;;;4.93;2.60;;;;;;;;;;10086291;29;20049;-69
2022/04/29 12:14:59;;;;;;;5.60;3.20;;;;;;;;;;10090563;29;20084;-69
2022/04/29 12:20:08;;;;;;;5.55;2.72;;;;;;;;;;10090211;29;20094;-67
2022/04/29 12:25:25;;;;;;;11.50;3.10;;;;;;;;;;10108609;29;20068;-68
2022/04/29 12:35:48;;;;;;;7.30;2.90;;;;;;;;;;10088464;29;20045;-70
2022/04/29 12:40:51;;;;;;;6.15;2.60;;;;;;;;;;10093210;29;20049;-69
2022/04/29 12:45:56;;;;;;;5.90;2.70;;;;;;;;;;10114224;29;20051;-68
2022/04/29 12:50:59;;;;;;;;;;;;;;;;;;10114016;29;20089;-67
2022/04/29 12:56:02;;;;;;;6.13;3.25;;;;;;;;;;10108524;29;19944;-70
2022/04/29 13:01:07;;;;;;;14.48;7.78;;;;;;;;;;10113079;29;20053;-70
2022/04/29 13:06:11;;;;;;;12.68;7.63;;;;;;;;;;10114550;29;20051;-70
2022/04/29 13:11:16;;;;;;;7.13;2.70;;;;;;;;;;10109665;29;20237;-68
2022/04/29 13:16:19;;;;;;;9.82;2.10;;;;;;;;;;10124882;29;20370;-70
2022/04/29 13:21:24;;;;;;;5.78;2.00;;;;;;;;;;10112558;29;20045;-70
2022/04/29 13:26:27;;;;;;;6.55;2.13;;;;;;;;;;10107708;29;20041;-69
2022/04/29 13:31:29;;;;;;;8.43;1.90;;;;;;;;;;10113971;29;20045;-69
2022/04/29 13:36:33;;;;;;;9.75;2.50;;;;;;;;;;10113105;29;20056;-69
2022/04/29 13:41:35;;;;;;;4.63;2.20;;;;;;;;;;10112195;29;20052;-67
2022/04/29 13:46:38;;;;;;;5.20;1.83;;;;;;;;;;10112407;29;20057;-70
2022/04/29 13:51:42;;;;;;;3.88;2.00;;;;;;;;;;10074566;29;20051;-67
2022/04/29 13:56:44;;;;;;;8.98;3.22;;;;;;;;;;10115455;29;20048;-67
2022/04/29 14:01:47;;;;;;;6.45;2.95;;;;;;;;;;10118690;29;20057;-69
2022/04/29 14:06:50;;;;;;;9.00;3.10;;;;;;;;;;10089581;29;20093;-70
2022/04/29 14:11:54;;;;;;;8.30;2.85;;;;;;;;;;10110453;29;20058;-68
2022/04/29 14:16:56;;;;;;;14.25;2.22;;;;;;;;;;10081514;29;20286;-65
2022/04/29 14:22:01;;;;;;;6.95;2.25;;;;;;;;;;10104634;29;20060;-68
2022/04/29 14:27:05;;;;;;;6.68;2.55;;;;;;;;;;10129465;29;20100;-70
2022/04/29 14:32:09;;;;;;;4.55;2.00;;;;;;;;;;10100158;29;20085;-68
2022/04/29 14:37:14;;;;;;;6.28;2.15;;;;;;;;;;10091771;29;20332;-70
2022/04/29 14:42:18;;;;;;;3.63;2.13;;;;;;;;;;10130928;29;20135;-69
2022/04/29 14:47:20;;;;;;;8.18;1.90;;;;;;;;;;10117201;29;20240;-68
2022/04/29 14:52:25;;;;;;;3.90;1.60;;;;;;;;;;10115612;29;20049;-68
2022/04/29 14:57:28;;;;;;;8.38;2.40;;;;;;;;;;10128997;29;20049;-69
2022/04/29 15:02:30;;;;;;;7.32;2.30;;;;;;;;;;10117424;29;20305;-67
2022/04/29 15:07:35;;;;;;;5.72;2.95;;;;;;;;;;10115277;29;20056;-70
2022/04/29 15:17:58;;;;;;;5.85;2.30;;;;;;;;;;10131247;29;20198;-69
2022/04/29 15:23:01;;;;;;;6.97;4.32;;;;;;;;;;10106322;29;20041;-69
2022/04/29 15:28:04;;;;;;;5.83;2.97;;;;;;;;;;10100460;29;20063;-70
2022/04/29 15:33:08;;;;;;;5.05;2.40;;;;;;;;;;10115743;29;20052;-67
2022/04/29 15:38:12;;;;;;;5.50;1.95;;;;;;;;;;10116443;29;20064;-66
2022/04/29 15:43:16;;;;;;;7.00;3.03;;;;;;;;;;10111174;29;20053;-69
2022/04/29 15:48:20;;;;;;;6.18;1.77;;;;;;;;;;10111640;29;20059;-68
2022/04/29 15:53:24;;;;;;;6.88;2.22;;;;;;;;;;10077132;29;20049;-68
2022/04/29 15:58:26;;;;;;;5.93;2.03;;;;;;;;;;10079458;29;20145;-68
2022/04/29 16:03:28;;;;;;;9.00;3.20;;;;;;;;;;10076080;29;20090;-68
2022/04/29 16:08:32;;;;;;;5.90;2.15;;;;;;;;;;10076058;29;20037;-68
2022/04/29 16:13:35;;;;;;;7.13;2.33;;;;;;;;;;10072658;29;20057;-68
2022/04/29 16:29:19;;;;;;;11.65;2.05;;;;;;;;;;10088375;29;20354;-67
2022/04/29 16:34:22;;;;;;;7.35;2.05;;;;;;;;;;10073078;29;20041;-70
2022/04/29 16:39:26;;;;;;;13.55;2.72;;;;;;;;;;10074092;29;20044;-68
2022/04/29 16:44:29;;;;;;;6.13;2.70;;;;;;;;;;10076864;29;20049;-67
2022/04/29 16:49:31;;;;;;;27.80;4.43;;;;;;;;;;10074151;29;20046;-69
2022/04/29 16:54:35;;;;;;;6.70;2.35;;;;;;;;;;10071586;29;20413;-68
2022/04/29 16:59:37;;;;;;;4.82;2.45;;;;;;;;;;10075026;29;20121;-67
2022/04/29 17:04:40;;;;;;;7.55;2.33;;;;;;;;;;10085194;29;20257;-68
2022/04/29 17:09:43;;;;;;;7.47;2.83;;;;;;;;;;10103977;29;20057;-67
2022/04/29 17:14:46;;;;;;;9.95;2.45;;;;;;;;;;10085875;29;20052;-70
2022/04/29 17:19:48;;;;;;;7.88;3.72;;;;;;;;;;10113519;29;20336;-68
2022/04/29 17:24:52;;;;;;;10.00;3.60;;;;;;;;;;10107876;29;20060;-68
2022/04/29 17:29:54;;;;;;;9.57;3.20;;;;;;;;;;10113979;29;20052;-69
2022/04/29 17:34:56;;;;;;;9.70;3.33;;;;;;;;;;10076180;29;20313;-68
2022/04/29 17:45:20;;;;;;;43.35;20.65;;;;;;;;;;10102243;29;20356;-66
2022/04/29 17:50:24;;;;;;;29.88;15.40;;;;;;;;;;10094552;29;20348;-68
2022/04/29 17:55:29;;;;;;;21.98;10.70;;;;;;;;;;10088453;29;20052;-68
2022/04/29 18:00:34;;;;;;;16.75;4.90;;;;;;;;;;10117833;29;20340;-68
2022/04/29 18:05:41;;;;;;;19.10;4.63;;;;;;;;;;10130687;29;20461;-68
2022/04/29 18:10:45;;;;;;;22.73;4.80;;;;;;;;;;10121693;29;20390;-67
2022/04/29 18:15:48;;;;;;;26.40;5.28;;;;;;;;;;10113224;29;20188;-67
2022/04/29 18:20:50;;;;;;;52.95;24.70;;;;;;;;;;10118476;29;20045;-67
2022/04/29 18:25:54;;;;;;;70.40;30.50;;;;;;;;;;10118448;29;20205;-67
2022/04/29 18:30:59;;;;;;;91.18;42.17;;;;;;;;;;10115721;29;20053;-68
2022/04/29 18:36:01;;;;;;;38.15;7.65;;;;;;;;;;10096761;29;20232;-66
2022/04/29 18:41:05;;;;;;;24.52;7.30;;;;;;;;;;10078425;29;20242;-67
2022/04/29 18:46:07;;;;;;;20.00;11.00;;;;;;;;;;10079151;29;20344;-68
2022/04/29 18:51:10;;;;;;;33.60;11.65;;;;;;;;;;10108683;29;20053;-68
2022/04/29 18:56:14;;;;;;;56.65;25.50;;;;;;;;;;10105369;29;20041;-68
2022/04/29 19:01:17;;;;;;;36.20;12.45;;;;;;;;;;10086204;29;20382;-67
2022/04/29 19:06:19;;;;;;;33.80;11.80;;;;;;;;;;10094338;29;20389;-68
2022/04/29 19:11:23;;;;;;;40.25;19.35;;;;;;;;;;10088479;29;20052;-67
2022/04/29 19:16:25;;;;;;;52.92;27.90;;;;;;;;;;10091634;29;20044;-67
2022/04/29 19:21:29;;;;;;;30.25;12.48;;;;;;;;;;10078263;29;20348;-67
2022/04/29 19:26:32;;;;;;;16.13;9.27;;;;;;;;;;10098953;29;20053;-66
2022/04/29 19:31:35;;;;;;;29.65;12.63;;;;;;;;;;10113907;29;20383;-67
2022/04/29 19:36:37;;;;;;;44.92;20.27;;;;;;;;;;10114512;29;20168;-68
2022/04/29 19:41:41;;;;;;;87.85;44.03;;;;;;;;;;10100219;29;20064;-67
2022/04/29 19:46:44;;;;;;;29.45;11.63;;;;;;;;;;10110989;29;20053;-66
2022/04/29 19:51:46;;;;;;;22.15;10.35;;;;;;;;;;10076809;29;20053;-67
2022/04/29 20:07:31;;;;;;;25.40;10.38;;;;;;;;;;10089223;29;20054;-67
2022/04/29 20:12:35;;;;;;;25.02;9.40;;;;;;;;;;10107870;29;20049;-67
2022/04/29 20:17:39;;;;;;;31.77;10.40;;;;;;;;;;10091942;29;20042;-68
2022/04/29 20:22:42;;;;;;;24.43;10.37;;;;;;;;;;10076077;29;20053;-66
2022/04/29 20:27:48;;;;;;;48.47;9.55;;;;;;;;;;10078970;29;20056;-67
2022/04/29 20:32:50;;;;;;;25.73;14.45;;;;;;;;;;10122592;29;20372;-67
2022/04/29 20:37:52;;;;;;;17.85;7.95;;;;;;;;;;10109311;29;20056;-67
2022/04/29 20:48:17;;;;;;;11.73;7.00;;;;;;;;;;10069253;29;20056;-67
2022/04/29 20:53:19;;;;;;;14.73;7.00;;;;;;;;;;10114633;29;20094;-67
2022/04/29 20:58:23;;;;;;;14.40;7.18;;;;;;;;;;10083218;29;20044;-68
2022/04/29 21:03:25;;;;;;;18.35;7.95;;;;;;;;;;10113345;29;20060;-68
2022/04/29 21:08:28;;;;;;;20.85;7.30;;;;;;;;;;10081936;29;20277;-68
2022/04/29 21:13:33;;;;;;;22.10;7.53;;;;;;;;;;10106518;29;20049;-67
2022/04/29 21:18:35;;;;;;;13.05;7.00;;;;;;;;;;10105347;29;20060;-66
2022/04/29 21:23:37;;;;;;;14.48;8.18;;;;;;;;;;10074115;29;20053;-67
2022/04/29 21:34:01;;;;;;;24.27;9.40;;;;;;;;;;10074478;29;20241;-67
2022/04/29 21:39:03;;;;;;;17.40;9.10;;;;;;;;;;10085419;29;20049;-68
2022/04/29 21:44:07;;;;;;;14.85;8.63;;;;;;;;;;10111372;29;20053;-66
2022/04/29 21:49:10;;;;;;;21.27;9.40;;;;;;;;;;10094751;29;20248;-68
2022/04/29 21:54:13;;;;;;;18.40;9.00;;;;;;;;;;10072348;29;20094;-66
2022/04/29 21:59:17;;;;;;;15.48;8.48;;;;;;;;;;10086505;29;20049;-68
2022/04/29 22:04:20;;;;;;;20.45;9.68;;;;;;;;;;10073977;29;20060;-67
2022/04/29 22:09:22;;;;;;;23.35;9.55;;;;;;;;;;10073864;29;20049;-67
2022/04/29 22:14:26;;;;;;;17.92;9.35;;;;;;;;;;10073263;29;20057;-66
2022/04/29 22:19:28;;;;;;;18.77;10.00;;;;;;;;;;10077145;29;20045;-67
2022/04/29 22:24:31;;;;;;;19.42;9.40;;;;;;;;;;10082320;29;20232;-68
2022/04/29 22:29:34;;;;;;;23.73;10.48;;;;;;;;;;10093125;29;20109;-65
2022/04/29 22:34:37;;;;;;;19.42;10.15;;;;;;;;;;10081112;29;20054;-67
2022/04/29 22:39:39;;;;;;;21.15;10.35;;;;;;;;;;10090940;29;20053;-67
2022/04/29 22:44:43;;;;;;;24.83;10.23;;;;;;;;;;10118490;29;20045;-67
2022/04/29 22:49:46;;;;;;;24.00;9.38;;;;;;;;;;10118418;29;20093;-66
2022/04/29 22:54:50;;;;;;;21.00;9.57;;;;;;;;;;10115046;29;20372;-67
2022/04/29 22:59:53;;;;;;;23.55;10.00;;;;;;;;;;10117594;29;20084;-66
2022/04/29 23:04:56;;;;;;;23.90;10.50;;;;;;;;;;10108115;29;20375;-67
2022/04/29 23:09:58;;;;;;;19.08;10.40;;;;;;;;;;10083583;29;20052;-66
2022/04/29 23:15:02;;;;;;;22.45;10.07;;;;;;;;;;10108039;29;20337;-66
2022/04/29 23:20:05;;;;;;;21.45;10.40;;;;;;;;;;10078692;29;20352;-66
2022/04/29 23:25:08;;;;;;;28.98;11.30;;;;;;;;;;10076661;29;20117;-66
2022/04/29 23:30:12;;;;;;;19.25;10.38;;;;;;;;;;10077603;29;20049;-66
2022/04/29 23:35:15;;;;;;;16.98;9.52;;;;;;;;;;10077426;29;20050;-65
2022/04/29 23:40:17;;;;;;;18.77;10.30;;;;;;;;;;10097080;29;20247;-65
2022/04/29 23:45:22;;;;;;;16.02;10.02;;;;;;;;;;10088458;29;20352;-66
2022/04/29 23:50:24;;;;;;;17.80;10.93;;;;;;;;;;10076927;29;20057;-66
2022/04/29 23:55:27;;;;;;;21.75;10.88;;;;;;;;;;10105899;29;20340;-66
